createdAt,value
2022-09-25T00:00:57.798Z,99.90
2022-09-25T00:03:25.231Z,99.90
2022-09-25T00:05:52.102Z,99.90
2022-09-25T00:08:18.760Z,99.90
2022-09-25T00:10:48.832Z,1.00
2022-09-25T00:13:16.053Z,1.00
2022-09-25T00:15:46.984Z,1.00
2022-09-25T00:18:13.654Z,1.00
2022-09-25T00:20:40.195Z,1.00
2022-09-25T00:23:06.991Z,1.00
2022-09-25T00:25:33.537Z,1.00
2022-09-25T00:28:01.481Z,1.00
2022-09-25T00:30:28.102Z,1.00
2022-09-25T00:32:54.739Z,1.00
2022-09-25T00:35:21.296Z,1.00
2022-09-25T00:37:48.000Z,1.00
2022-09-25T00:40:14.619Z,1.00
2022-09-25T00:42:41.498Z,1.00
2022-09-25T00:45:18.534Z,1.00
2022-09-25T00:48:04.212Z,1.00
2022-09-25T00:50:32.281Z,1.00
2022-09-25T00:53:03.954Z,1.00
2022-09-25T00:55:31.256Z,1.00
2022-09-25T00:57:57.793Z,1.00
2022-09-25T01:00:24.332Z,1.00
2022-09-25T01:02:53.240Z,1.00
2022-09-25T01:05:21.553Z,1.00
2022-09-25T01:07:48.121Z,1.00
2022-09-25T01:10:14.738Z,1.00
2022-09-25T01:12:43.325Z,1.00
2022-09-25T01:15:11.583Z,99.90
2022-09-25T01:17:41.118Z,99.90
2022-09-25T01:20:15.057Z,99.90
2022-09-25T01:22:47.916Z,99.90
2022-09-25T01:25:26.658Z,99.90
2022-09-25T01:27:59.485Z,99.90
2022-09-25T01:30:26.353Z,99.90
2022-09-25T01:33:14.494Z,15.20
2022-09-25T01:36:00.042Z,1.00
2022-09-25T01:38:33.382Z,1.00
2022-09-25T01:41:14.504Z,1.00
2022-09-25T01:44:01.293Z,1.00
2022-09-25T01:46:28.931Z,1.00
2022-09-25T01:48:56.817Z,1.00
2022-09-25T01:51:24.773Z,1.00
2022-09-25T01:53:52.322Z,1.00
2022-09-25T01:56:32.687Z,1.00
2022-09-25T01:59:00.328Z,1.00
2022-09-25T02:01:28.741Z,1.00
2022-09-25T02:03:57.078Z,1.00
2022-09-25T02:06:23.957Z,1.00
2022-09-25T02:09:10.195Z,1.00
2022-09-25T02:11:41.028Z,1.00
2022-09-25T02:14:08.953Z,1.00
2022-09-25T02:16:36.365Z,1.00
2022-09-25T02:19:21.712Z,25.90
2022-09-25T02:21:57.020Z,29.70
2022-09-25T02:24:26.502Z,60.80
2022-09-25T02:26:53.115Z,70.00
2022-09-25T02:29:19.752Z,71.10
2022-09-25T02:31:57.205Z,36.50
2022-09-25T02:34:23.761Z,73.30
2022-09-25T02:36:50.313Z,99.90
2022-09-25T02:39:17.545Z,99.90
2022-09-25T02:41:50.511Z,99.90
2022-09-25T02:44:25.888Z,99.90
2022-09-25T02:47:13.286Z,99.90
2022-09-25T02:49:51.082Z,99.90
2022-09-25T02:52:23.620Z,99.90
2022-09-25T02:54:57.466Z,99.90
2022-09-25T02:57:28.676Z,99.90
2022-09-25T02:59:56.540Z,45.20
2022-09-25T03:02:23.109Z,56.90
2022-09-25T03:04:49.690Z,13.60
2022-09-25T03:07:16.774Z,16.10
2022-09-25T03:09:44.626Z,7.40
2022-09-25T03:12:11.409Z,3.90
2022-09-25T03:14:37.957Z,14.90
2022-09-25T03:17:04.859Z,5.60
2022-09-25T03:19:31.906Z,15.10
2022-09-25T03:21:58.454Z,16.80
2022-09-25T03:24:25.593Z,10.90
2022-09-25T03:26:52.185Z,1.00
2022-09-25T03:29:18.755Z,1.00
2022-09-25T03:31:45.574Z,1.00
2022-09-25T03:34:12.937Z,1.00
2022-09-25T03:36:39.535Z,1.00
2022-09-25T03:39:06.682Z,1.00
2022-09-25T03:41:33.511Z,1.00
2022-09-25T03:44:00.793Z,1.00
2022-09-25T03:46:28.284Z,1.00
2022-09-25T03:48:54.962Z,1.00
2022-09-25T03:51:21.531Z,1.00
2022-09-25T03:53:48.481Z,1.00
2022-09-25T03:56:16.999Z,1.00
2022-09-25T03:58:43.763Z,1.00
2022-09-25T04:01:10.980Z,1.00
2022-09-25T04:03:37.571Z,1.00
2022-09-25T04:06:07.394Z,1.00
2022-09-25T04:08:34.790Z,1.00
2022-09-25T04:11:01.672Z,1.00
2022-09-25T04:13:32.467Z,1.00
2022-09-25T04:16:01.221Z,1.00
2022-09-25T04:18:29.078Z,1.00
2022-09-25T04:20:55.623Z,1.00
2022-09-25T04:23:22.149Z,1.00
2022-09-25T04:25:49.402Z,1.00
2022-09-25T04:28:15.934Z,1.00
2022-09-25T04:30:42.471Z,1.00
2022-09-25T04:33:47.825Z,1.00
2022-09-25T04:36:15.323Z,1.00
2022-09-25T04:38:42.333Z,1.00
2022-09-25T04:41:08.887Z,1.00
2022-09-25T04:43:35.459Z,1.00
2022-09-25T04:46:02.781Z,1.00
2022-09-25T04:48:29.705Z,1.00
2022-09-25T04:50:56.571Z,1.00
2022-09-25T04:53:23.470Z,1.00
2022-09-25T04:55:50.022Z,1.00
2022-09-25T04:58:16.569Z,1.00
2022-09-25T05:00:43.126Z,1.00
2022-09-25T05:03:09.725Z,1.00
2022-09-25T05:05:36.381Z,1.00
2022-09-25T05:08:03.122Z,1.00
2022-09-25T05:10:30.602Z,1.00
2022-09-25T05:12:58.129Z,1.00
2022-09-25T05:15:24.905Z,1.00
2022-09-25T05:17:53.427Z,1.00
2022-09-25T05:20:19.978Z,1.00
2022-09-25T05:22:47.165Z,1.00
2022-09-25T05:25:13.736Z,1.00
2022-09-25T05:27:40.277Z,1.00
2022-09-25T05:30:08.822Z,99.90
2022-09-25T05:32:35.360Z,99.90
2022-09-25T05:35:04.271Z,99.90
2022-09-25T05:37:30.857Z,99.90
2022-09-25T05:39:57.404Z,99.90
2022-09-25T05:42:23.942Z,99.90
2022-09-25T05:44:50.497Z,99.90
2022-09-25T05:47:17.103Z,99.90
2022-09-25T05:49:43.644Z,99.90
2022-09-25T05:52:10.186Z,99.90
2022-09-25T05:54:36.836Z,99.90
2022-09-25T05:57:03.399Z,99.90
2022-09-25T05:59:29.935Z,35.40
2022-09-25T06:01:56.547Z,27.50
2022-09-25T06:04:23.145Z,10.00
2022-09-25T06:06:49.714Z,1.00
2022-09-25T06:09:16.302Z,1.00
2022-09-25T06:11:47.464Z,1.00
2022-09-25T06:14:14.137Z,1.00
2022-09-25T06:16:40.954Z,1.00
2022-09-25T06:19:07.499Z,1.00
2022-09-25T06:21:34.264Z,1.00
2022-09-25T06:24:00.938Z,1.00
2022-09-25T06:26:27.522Z,1.00
2022-09-25T06:28:54.422Z,1.00
2022-09-25T06:31:21.589Z,1.00
2022-09-25T06:33:50.139Z,1.00
2022-09-25T06:36:16.703Z,1.00
2022-09-25T06:38:43.232Z,1.00
2022-09-25T06:41:09.836Z,1.00
2022-09-25T06:43:36.774Z,1.00
2022-09-25T06:46:03.546Z,99.90
2022-09-25T06:48:30.312Z,99.90
2022-09-25T06:50:57.229Z,99.90
2022-09-25T06:53:24.147Z,99.90
2022-09-25T06:55:50.977Z,99.90
2022-09-25T06:58:19.093Z,99.90
2022-09-25T07:00:46.075Z,99.90
2022-09-25T07:03:31.338Z,99.90
2022-09-25T07:05:59.490Z,99.90
2022-09-25T07:08:26.044Z,99.90
2022-09-25T07:10:53.435Z,77.20
2022-09-25T07:13:24.387Z,63.20
2022-09-25T07:15:54.554Z,1.00
2022-09-25T07:18:21.447Z,4.40
2022-09-25T07:20:48.381Z,1.00
2022-09-25T07:23:15.300Z,1.00
2022-09-25T07:25:41.888Z,1.00
2022-09-25T07:28:09.339Z,1.00
2022-09-25T07:30:35.883Z,1.00
2022-09-25T07:33:02.477Z,1.00
2022-09-25T07:35:29.019Z,1.00
2022-09-25T07:37:56.291Z,1.00
2022-09-25T07:40:22.988Z,1.00
2022-09-25T07:42:49.540Z,1.00
2022-09-25T07:45:16.121Z,1.00
2022-09-25T07:47:42.662Z,1.00
2022-09-25T07:50:13.329Z,1.00
2022-09-25T07:52:42.002Z,1.00
2022-09-25T07:55:09.037Z,1.00
2022-09-25T07:57:35.649Z,1.00
2022-09-25T08:00:02.296Z,1.00
2022-09-25T08:02:28.958Z,1.00
2022-09-25T08:04:55.581Z,1.00
2022-09-25T08:07:22.127Z,1.00
2022-09-25T08:09:48.676Z,1.00
2022-09-25T08:12:15.344Z,99.90
2022-09-25T08:14:42.146Z,99.90
2022-09-25T08:17:08.730Z,99.90
2022-09-25T08:19:35.347Z,99.90
2022-09-25T08:22:01.895Z,99.90
2022-09-25T08:24:28.472Z,99.90
2022-09-25T08:26:55.046Z,99.90
2022-09-25T08:29:21.609Z,99.90
2022-09-25T08:31:48.537Z,99.90
2022-09-25T08:34:39.419Z,99.90
2022-09-25T08:37:02.851Z,99.90
2022-09-25T08:39:29.457Z,99.90
2022-09-25T08:41:56.237Z,99.90
2022-09-25T08:44:24.673Z,99.90
2022-09-25T08:47:13.851Z,99.90
2022-09-25T08:49:45.633Z,99.90
2022-09-25T08:52:14.284Z,99.90
2022-09-25T08:54:43.453Z,99.90
2022-09-25T08:57:14.501Z,99.90
2022-09-25T08:59:42.583Z,71.50
2022-09-25T09:02:11.309Z,29.90
2022-09-25T09:04:40.703Z,93.30
2022-09-25T09:07:27.525Z,99.90
2022-09-25T09:10:00.449Z,99.90
2022-09-25T09:12:40.301Z,43.00
2022-09-25T09:15:12.171Z,53.00
2022-09-25T09:17:41.474Z,55.50
2022-09-25T09:20:15.548Z,99.90
2022-09-25T09:22:44.157Z,99.90
2022-09-25T09:25:29.553Z,99.90
2022-09-25T09:28:06.978Z,99.90
2022-09-25T09:30:35.308Z,87.60
2022-09-25T09:33:04.854Z,84.00
2022-09-25T09:35:38.950Z,99.90
2022-09-25T09:38:24.029Z,99.90
2022-09-25T09:41:02.819Z,99.90
2022-09-25T09:43:48.121Z,99.90
2022-09-25T09:46:25.320Z,99.90
2022-09-25T09:48:51.877Z,99.90
2022-09-25T09:51:19.701Z,99.90
2022-09-25T09:53:54.089Z,99.90
2022-09-25T09:56:25.094Z,99.90
2022-09-25T09:58:54.378Z,99.90
2022-09-25T10:01:40.359Z,86.90
2022-09-25T10:04:08.207Z,99.90
2022-09-25T10:06:36.400Z,99.90
2022-09-25T10:09:03.020Z,99.90
2022-09-25T10:11:31.396Z,99.90
2022-09-25T10:14:00.002Z,99.90
2022-09-25T10:16:26.556Z,99.90
2022-09-25T10:19:04.065Z,99.90
2022-09-25T10:21:31.885Z,99.90
2022-09-25T10:23:59.136Z,99.90
2022-09-25T10:26:29.534Z,99.90
2022-09-25T10:28:57.498Z,99.90
2022-09-25T10:31:24.980Z,99.90
2022-09-25T10:33:57.652Z,94.60
2022-09-25T10:36:43.648Z,99.90
2022-09-25T10:39:46.068Z,99.90
2022-09-25T10:42:33.056Z,99.90
2022-09-25T10:44:59.623Z,99.90
2022-09-25T10:47:47.375Z,56.20
2022-09-25T10:50:15.432Z,42.60
2022-09-25T10:52:52.826Z,1.00
2022-09-25T10:55:20.731Z,2.60
2022-09-25T10:57:47.328Z,1.00
2022-09-25T11:00:20.820Z,1.00
2022-09-25T11:02:47.451Z,1.00
2022-09-25T11:05:18.259Z,1.00
2022-09-25T11:07:55.107Z,1.00
2022-09-25T11:10:22.867Z,1.00
2022-09-25T11:12:50.098Z,1.00
2022-09-25T11:15:17.673Z,1.00
2022-09-25T11:17:44.234Z,1.00
2022-09-25T11:20:17.650Z,1.00
2022-09-25T11:22:47.818Z,1.00
2022-09-25T11:25:14.448Z,1.00
2022-09-25T11:28:05.991Z,1.00
2022-09-25T11:30:37.877Z,1.00
2022-09-25T11:33:06.380Z,1.00
2022-09-25T11:35:33.505Z,1.00
2022-09-25T11:38:03.093Z,1.00
2022-09-25T11:40:51.595Z,1.00
2022-09-25T11:43:21.057Z,1.00
2022-09-25T11:45:48.609Z,1.00
2022-09-25T11:48:27.442Z,1.00
2022-09-25T11:51:00.101Z,1.00
2022-09-25T11:53:45.925Z,1.00
2022-09-25T11:56:19.169Z,1.00
2022-09-25T11:58:49.437Z,1.00
2022-09-25T12:01:34.827Z,1.00
2022-09-25T12:04:23.089Z,1.00
2022-09-25T12:06:59.224Z,1.00
2022-09-25T12:09:30.220Z,1.00
2022-09-25T12:12:09.227Z,1.00
2022-09-25T12:14:54.729Z,1.00
2022-09-25T12:17:29.614Z,1.00
2022-09-25T12:19:58.905Z,1.00
2022-09-25T12:22:44.355Z,1.00
2022-09-25T12:25:33.505Z,1.00
2022-09-25T12:28:21.695Z,1.00
2022-09-25T12:30:56.999Z,1.00
2022-09-25T12:33:50.114Z,1.00
2022-09-25T12:36:16.754Z,1.00
2022-09-25T12:38:44.991Z,1.00
2022-09-25T12:41:13.062Z,1.40
2022-09-25T12:43:44.637Z,99.90
2022-09-25T12:46:22.566Z,99.90
2022-09-25T12:48:51.337Z,99.90
2022-09-25T12:51:22.626Z,99.90
2022-09-25T12:53:59.000Z,99.90
2022-09-25T12:56:27.388Z,99.90
2022-09-25T12:58:53.909Z,99.90
2022-09-25T13:01:39.619Z,99.90
2022-09-25T13:04:35.425Z,99.90
2022-09-25T13:07:05.308Z,99.90
2022-09-25T13:09:36.474Z,99.90
2022-09-25T13:12:10.216Z,99.90
2022-09-25T13:14:42.636Z,99.90
2022-09-25T13:17:12.494Z,99.90
2022-09-25T13:19:39.125Z,99.90
2022-09-25T13:22:06.398Z,99.90
2022-09-25T13:24:46.017Z,99.90
2022-09-25T13:27:14.252Z,99.90
2022-09-25T13:29:41.510Z,99.90
2022-09-25T13:32:13.235Z,99.90
2022-09-25T13:34:39.920Z,99.90
2022-09-25T13:37:07.456Z,99.90
2022-09-25T13:39:56.902Z,99.90
2022-09-25T13:42:24.699Z,99.90
2022-09-25T13:44:56.542Z,99.90
2022-09-25T13:47:27.060Z,99.90
2022-09-25T13:50:11.816Z,99.90
2022-09-25T13:52:38.335Z,99.90
2022-09-25T13:55:11.993Z,99.90
2022-09-25T13:57:58.198Z,99.90
2022-09-25T14:00:28.577Z,99.90
2022-09-25T14:03:02.813Z,99.90
2022-09-25T14:05:36.024Z,99.90
2022-09-25T14:08:12.679Z,99.90
2022-09-25T14:10:46.003Z,99.90
2022-09-25T14:13:13.015Z,99.90
2022-09-25T14:15:40.180Z,99.90
2022-09-25T14:18:08.243Z,99.90
2022-09-25T14:20:36.184Z,99.90
2022-09-25T14:23:04.803Z,99.90
2022-09-25T14:25:37.348Z,99.90
2022-09-25T14:28:13.602Z,99.90
2022-09-25T14:30:40.267Z,99.90
2022-09-25T14:33:11.517Z,99.90
2022-09-25T14:35:51.312Z,99.90
2022-09-25T14:38:32.811Z,99.90
2022-09-25T14:41:21.503Z,99.90
2022-09-25T14:43:52.344Z,99.90
2022-09-25T14:46:20.251Z,99.90
2022-09-25T14:48:48.975Z,99.90
2022-09-25T14:51:23.236Z,99.90
2022-09-25T14:53:53.963Z,99.90
2022-09-25T14:56:20.556Z,99.90
2022-09-25T14:58:48.553Z,99.90
2022-09-25T15:01:17.839Z,99.90
2022-09-25T15:03:46.816Z,99.90
2022-09-25T15:06:16.292Z,99.90
2022-09-25T15:08:43.316Z,99.90
2022-09-25T15:11:11.808Z,99.90
2022-09-25T15:13:42.129Z,1.00
2022-09-25T15:16:31.946Z,99.90
2022-09-25T15:18:59.178Z,99.90
2022-09-25T15:21:25.908Z,99.90
2022-09-25T15:23:53.321Z,99.90
2022-09-25T15:26:20.317Z,99.90
2022-09-25T15:28:46.948Z,99.90
2022-09-25T15:31:13.875Z,99.90
2022-09-25T15:33:40.639Z,99.90
2022-09-25T15:36:14.793Z,99.90
2022-09-25T15:38:44.903Z,99.90
2022-09-25T15:41:17.460Z,99.90
2022-09-25T15:43:44.016Z,99.90
2022-09-25T15:46:10.656Z,99.90
2022-09-25T15:48:38.978Z,99.90
2022-09-25T15:51:15.200Z,99.90
2022-09-25T15:53:44.635Z,99.90
2022-09-25T15:56:21.423Z,99.90
2022-09-25T15:59:08.181Z,99.90
2022-09-25T16:01:53.433Z,99.90
2022-09-25T16:04:42.399Z,99.90
2022-09-25T16:07:29.221Z,99.90
2022-09-25T16:09:59.761Z,99.90
2022-09-25T16:12:30.308Z,99.90
2022-09-25T16:14:57.071Z,99.90
2022-09-25T16:17:33.682Z,99.90
2022-09-25T16:20:01.717Z,99.90
2022-09-25T16:22:29.040Z,99.90
2022-09-25T16:24:55.737Z,1.00
2022-09-25T16:27:32.161Z,99.90
2022-09-25T16:30:03.488Z,99.90
2022-09-25T16:32:30.793Z,99.90
2022-09-25T16:35:00.934Z,99.90
2022-09-25T16:37:28.818Z,99.90
2022-09-25T16:40:19.915Z,99.90
2022-09-25T16:42:47.275Z,99.90
2022-09-25T16:45:14.797Z,99.90
2022-09-25T16:47:45.612Z,99.90
2022-09-25T16:50:15.704Z,99.90
2022-09-25T16:52:43.165Z,99.90
2022-09-25T16:55:21.396Z,99.90
2022-09-25T16:57:48.875Z,99.90
2022-09-25T17:00:16.789Z,99.90
2022-09-25T17:02:43.812Z,99.90
2022-09-25T17:05:20.562Z,99.90
2022-09-25T17:07:48.020Z,99.90
2022-09-25T17:10:16.022Z,99.90
2022-09-25T17:12:43.589Z,99.90
2022-09-25T17:15:31.981Z,99.90
2022-09-25T17:17:59.573Z,99.90
2022-09-25T17:20:26.390Z,1.00
2022-09-25T17:22:53.197Z,1.00
2022-09-25T17:25:19.683Z,1.00
2022-09-25T17:27:46.680Z,1.00
2022-09-25T17:30:13.247Z,1.00
2022-09-25T17:32:44.658Z,1.00
2022-09-25T17:35:24.978Z,1.00
2022-09-25T17:37:52.640Z,1.00
2022-09-25T17:40:19.307Z,1.00
2022-09-25T17:42:45.873Z,1.00
2022-09-25T17:45:26.143Z,1.00
2022-09-25T17:47:54.613Z,1.00
2022-09-25T17:50:21.373Z,1.00
2022-09-25T17:52:47.916Z,1.00
2022-09-25T17:55:18.244Z,1.00
2022-09-25T17:57:44.793Z,1.00
2022-09-25T18:00:11.611Z,1.00
2022-09-25T18:02:38.235Z,1.00
2022-09-25T18:05:04.924Z,1.00
2022-09-25T18:07:33.876Z,38.70
2022-09-25T18:10:00.566Z,1.00
2022-09-25T18:12:27.125Z,99.90
2022-09-25T18:14:53.665Z,99.90
2022-09-25T18:17:20.215Z,99.90
2022-09-25T18:20:05.753Z,1.00
2022-09-25T18:22:32.305Z,1.00
2022-09-25T18:24:58.837Z,99.90
2022-09-25T18:27:26.187Z,59.10
2022-09-25T18:29:53.074Z,1.00
2022-09-25T18:32:19.697Z,1.00
2022-09-25T18:34:46.238Z,13.60
2022-09-25T18:37:12.790Z,1.00
2022-09-25T18:39:39.315Z,99.90
2022-09-25T18:42:06.009Z,99.90
2022-09-25T18:44:38.545Z,99.90
2022-09-25T18:47:07.154Z,99.90
2022-09-25T18:49:33.881Z,99.90
2022-09-25T18:52:00.442Z,99.90
2022-09-25T18:54:27.049Z,99.90
2022-09-25T18:56:54.624Z,99.90
2022-09-25T18:59:21.152Z,99.90
2022-09-25T19:01:47.869Z,99.90
2022-09-25T19:04:15.524Z,99.90
2022-09-25T19:06:42.114Z,99.90
2022-09-25T19:09:12.494Z,99.90
2022-09-25T19:11:42.102Z,99.90
2022-09-25T19:14:09.027Z,99.90
2022-09-25T19:16:38.544Z,78.80
2022-09-25T19:19:05.513Z,1.00
2022-09-25T19:21:32.880Z,1.00
2022-09-25T19:23:59.483Z,1.00
2022-09-25T19:26:26.024Z,1.00
2022-09-25T19:28:53.028Z,99.90
2022-09-25T19:31:20.541Z,99.90
2022-09-25T19:33:47.148Z,99.90
2022-09-25T19:36:19.049Z,99.90
2022-09-25T19:38:45.710Z,99.90
2022-09-25T19:41:16.112Z,99.90
2022-09-25T19:43:42.692Z,99.90
2022-09-25T19:46:10.504Z,99.90
2022-09-25T19:48:37.136Z,99.90
2022-09-25T19:51:06.053Z,99.90
2022-09-25T19:53:32.755Z,99.90
2022-09-25T19:55:59.295Z,99.90
2022-09-25T19:58:25.861Z,99.90
2022-09-25T20:00:53.699Z,99.90
2022-09-25T20:03:20.246Z,1.00
2022-09-25T20:05:48.810Z,1.00
2022-09-25T20:08:15.352Z,1.00
2022-09-25T20:10:41.871Z,1.00
2022-09-25T20:13:10.219Z,1.00
2022-09-25T20:15:36.839Z,1.00
2022-09-25T20:18:03.469Z,1.00
2022-09-25T20:20:30.114Z,1.00
2022-09-25T20:22:56.705Z,1.00
2022-09-25T20:25:23.356Z,1.00
2022-09-25T20:27:50.204Z,1.00
2022-09-25T20:30:16.897Z,1.00
2022-09-25T20:32:43.578Z,1.00
2022-09-25T20:35:10.104Z,1.00
2022-09-25T20:37:36.777Z,1.00
2022-09-25T20:40:03.547Z,1.00
2022-09-25T20:42:30.113Z,1.00
2022-09-25T20:44:56.641Z,58.30
2022-09-25T20:47:23.187Z,99.90
2022-09-25T20:49:49.729Z,99.90
2022-09-25T20:52:16.259Z,99.90
2022-09-25T20:54:42.821Z,99.90
2022-09-25T20:57:09.370Z,99.90
2022-09-25T20:59:36.170Z,99.90
2022-09-25T21:02:03.104Z,99.90
2022-09-25T21:04:29.746Z,99.90
2022-09-25T21:06:56.330Z,99.90
2022-09-25T21:09:26.217Z,99.90
2022-09-25T21:11:53.149Z,99.90
2022-09-25T21:14:20.866Z,99.90
2022-09-25T21:16:47.755Z,99.90
2022-09-25T21:19:14.696Z,1.00
2022-09-25T21:21:41.400Z,1.00
2022-09-25T21:24:07.961Z,1.00
2022-09-25T21:26:34.520Z,1.00
2022-09-25T21:29:02.074Z,1.00
2022-09-25T21:31:30.546Z,1.00
2022-09-25T21:33:57.378Z,1.00
2022-09-25T21:36:24.026Z,1.00
2022-09-25T21:38:50.801Z,1.00
2022-09-25T21:41:21.451Z,1.00
2022-09-25T21:43:48.336Z,1.00
2022-09-25T21:46:15.745Z,1.00
2022-09-25T21:48:44.790Z,76.90
2022-09-25T21:51:11.329Z,99.90
2022-09-25T21:53:37.872Z,99.90
2022-09-25T21:56:05.473Z,99.90
2022-09-25T21:58:32.606Z,99.90
2022-09-25T22:01:05.340Z,99.90
2022-09-25T22:03:32.658Z,99.90
2022-09-25T22:05:59.972Z,99.90
2022-09-25T22:08:26.543Z,99.90
2022-09-25T22:10:56.612Z,99.90
2022-09-25T22:13:23.384Z,99.90
2022-09-25T22:15:49.955Z,99.90
2022-09-25T22:18:16.513Z,99.90
2022-09-25T22:20:43.040Z,99.90
2022-09-25T22:23:09.589Z,99.90
2022-09-25T22:25:36.129Z,99.90
2022-09-25T22:28:02.681Z,99.90
2022-09-25T22:30:29.464Z,1.00
2022-09-25T22:32:56.040Z,1.00
2022-09-25T22:35:22.591Z,1.00
2022-09-25T22:37:49.146Z,1.00
2022-09-25T22:40:15.753Z,1.00
2022-09-25T22:42:42.332Z,1.00
2022-09-25T22:45:08.985Z,1.00
2022-09-25T22:47:35.526Z,1.00
2022-09-25T22:50:02.068Z,1.00
2022-09-25T22:52:28.601Z,1.00
2022-09-25T22:54:55.149Z,1.00
2022-09-25T22:57:21.685Z,1.00
2022-09-25T22:59:48.534Z,1.00
2022-09-25T23:02:15.060Z,1.00
2022-09-25T23:04:41.610Z,1.00
2022-09-25T23:07:08.163Z,1.00
2022-09-25T23:09:34.725Z,1.00
2022-09-25T23:12:01.377Z,1.00
2022-09-25T23:14:31.201Z,41.30
2022-09-25T23:16:57.880Z,93.30
2022-09-25T23:19:24.594Z,99.90
2022-09-25T23:21:51.200Z,99.90
2022-09-25T23:24:17.879Z,99.90
2022-09-25T23:26:44.527Z,99.90
2022-09-25T23:29:11.608Z,99.90
2022-09-25T23:31:38.312Z,99.90
2022-09-25T23:34:04.888Z,99.90
2022-09-25T23:36:31.498Z,99.90
2022-09-25T23:38:58.900Z,99.90
2022-09-25T23:41:26.327Z,99.90
2022-09-25T23:43:53.085Z,1.00
2022-09-25T23:46:20.262Z,1.00
2022-09-25T23:48:46.904Z,1.00
2022-09-25T23:51:13.745Z,1.00
2022-09-25T23:53:40.836Z,1.00
2022-09-25T23:56:07.960Z,1.00
2022-09-25T23:58:34.578Z,99.90
